Micco, Florida
Current Conditions -  °F | °C
As of 12:53 AM on Wednesday 22 Oct 2014 (Local Time) from KVRB Reporting Station
Clear Clear  
Wind Chill: 67°   Ceiling: Unl
Heat Index: 67°   Visibility: 10mi
Dew Point: 65°   Wind: 5mph
Humidity: 93%   Direction: 250°WSW
Pressure: 29.95"   Gusts: NA
Location:  27.8606°N, 80.5442°W
Report Text: KVRB 220453Z 25004KT 10SM CLR 19/18 A2995 RMK AO2 SLP139 T01940183 402670183
Loading
Personal Weather Stations






























Interactive Weather Map
Tropical Storm Tracking
New forecast layout! Learn more

10-Day Weather Forecast

Advertisements
Track Severe Weather on mobile